createdAt,value
2023-02-01T00:00:54.085Z,71.72
2023-02-01T00:03:20.601Z,71.15
2023-02-01T00:05:55.731Z,71.50
2023-02-01T00:08:22.153Z,71.75
2023-02-01T00:10:48.552Z,71.62
2023-02-01T00:13:14.972Z,71.92
2023-02-01T00:15:41.439Z,72.04
2023-02-01T00:18:07.812Z,71.84
2023-02-01T00:20:34.243Z,71.20
2023-02-01T00:23:00.605Z,71.90
2023-02-01T00:25:26.995Z,72.00
2023-02-01T00:27:53.410Z,71.85
2023-02-01T00:30:20.344Z,71.86
2023-02-01T00:32:46.920Z,72.08
2023-02-01T00:35:13.336Z,72.38
2023-02-01T00:37:39.735Z,71.31
2023-02-01T00:40:06.402Z,71.07
2023-02-01T00:42:32.794Z,72.08
2023-02-01T00:44:59.146Z,71.71
2023-02-01T00:47:25.806Z,71.32
2023-02-01T00:49:52.517Z,72.02
2023-02-01T00:52:18.900Z,71.73
2023-02-01T00:54:45.305Z,72.56
2023-02-01T00:57:11.935Z,72.74
2023-02-01T00:59:38.381Z,73.01
2023-02-01T01:02:04.880Z,73.06
2023-02-01T01:04:31.304Z,73.21
2023-02-01T01:06:57.730Z,72.11
2023-02-01T01:09:24.089Z,72.09
2023-02-01T01:11:52.349Z,72.66
2023-02-01T01:14:18.827Z,72.58
2023-02-01T01:16:45.313Z,73.69
2023-02-01T01:19:13.021Z,72.71
2023-02-01T01:21:39.425Z,73.41
2023-02-01T01:24:06.073Z,72.97
2023-02-01T01:26:32.566Z,72.74
2023-02-01T01:28:59.871Z,73.13
2023-02-01T01:31:26.458Z,72.67
2023-02-01T01:33:53.987Z,72.54
2023-02-01T01:36:21.020Z,73.04
2023-02-01T01:38:47.798Z,73.59
2023-02-01T01:41:15.967Z,73.12
2023-02-01T01:44:00.358Z,73.24
2023-02-01T01:46:32.794Z,73.79
2023-02-01T01:49:08.948Z,72.47
2023-02-01T01:51:38.647Z,72.66
2023-02-01T01:54:09.459Z,72.18
2023-02-01T01:56:36.431Z,72.97
2023-02-01T01:59:04.377Z,72.63
2023-02-01T02:01:30.949Z,72.34
2023-02-01T02:03:57.763Z,73.07
2023-02-01T02:06:39.639Z,72.29
2023-02-01T02:09:07.095Z,72.88
2023-02-01T02:11:33.784Z,73.54
2023-02-01T02:14:00.536Z,73.71
2023-02-01T02:16:42.347Z,72.59
2023-02-01T02:23:02.013Z,72.92
2023-02-01T02:25:47.415Z,73.47
2023-02-01T02:28:26.079Z,72.44
2023-02-01T02:31:04.777Z,72.49
2023-02-01T02:33:31.267Z,72.48
2023-02-01T02:36:02.717Z,71.98
2023-02-01T02:38:37.553Z,72.12
2023-02-01T02:41:13.201Z,72.19
2023-02-01T02:44:08.140Z,72.26
2023-02-01T02:46:56.837Z,72.45
2023-02-01T02:49:23.598Z,72.12
2023-02-01T02:52:12.207Z,73.41
2023-02-01T02:54:48.321Z,73.68
2023-02-01T02:57:39.937Z,73.23
2023-02-01T03:00:28.190Z,72.50
2023-02-01T03:03:13.862Z,73.25
2023-02-01T03:05:45.343Z,73.70
2023-02-01T03:08:12.947Z,73.04
2023-02-01T03:10:58.551Z,73.36
2023-02-01T03:13:39.571Z,72.71
2023-02-01T03:16:06.139Z,72.62
2023-02-01T03:18:45.601Z,72.76
2023-02-01T03:21:15.074Z,72.52
2023-02-01T03:23:43.843Z,72.85
2023-02-01T03:26:12.442Z,72.58
2023-02-01T03:28:43.023Z,72.37
2023-02-01T03:31:09.642Z,72.40
2023-02-01T03:33:36.312Z,72.22
2023-02-01T03:36:19.527Z,71.76
2023-02-01T03:38:52.069Z,72.58
2023-02-01T03:41:26.294Z,73.34
2023-02-01T03:43:58.891Z,74.37
2023-02-01T03:46:33.990Z,73.47
2023-02-01T03:49:03.247Z,74.57
2023-02-01T03:51:31.250Z,74.13
2023-02-01T03:53:58.187Z,74.10
2023-02-01T03:56:27.350Z,74.04
2023-02-01T03:59:00.134Z,74.92
2023-02-01T04:01:31.780Z,75.39
2023-02-01T04:03:58.925Z,75.83
2023-02-01T04:06:25.733Z,75.05
2023-02-01T04:08:54.384Z,75.09
2023-02-01T04:11:20.832Z,75.78
2023-02-01T04:13:47.260Z,76.09
2023-02-01T04:16:14.285Z,75.62
2023-02-01T04:18:40.797Z,75.62
2023-02-01T04:21:07.593Z,75.58
2023-02-01T04:23:34.020Z,75.88
2023-02-01T04:26:01.584Z,75.99
2023-02-01T04:28:28.160Z,75.93
2023-02-01T04:30:54.722Z,75.62
2023-02-01T04:33:21.351Z,75.27
2023-02-01T04:35:48.225Z,75.08
2023-02-01T04:38:14.669Z,75.74
2023-02-01T04:40:41.114Z,75.10
2023-02-01T04:43:07.539Z,74.53
2023-02-01T04:45:33.984Z,74.50
2023-02-01T04:48:00.550Z,74.96
2023-02-01T04:50:27.031Z,74.80
2023-02-01T04:52:53.605Z,75.27
2023-02-01T04:55:20.563Z,74.28
2023-02-01T04:57:47.261Z,74.52
2023-02-01T05:00:14.186Z,74.51
2023-02-01T05:02:41.089Z,75.31
2023-02-01T05:05:07.679Z,74.68
2023-02-01T05:07:34.152Z,74.96
2023-02-01T05:10:00.603Z,74.88
2023-02-01T05:12:45.744Z,75.07
2023-02-01T05:15:12.176Z,75.03
2023-02-01T05:17:41.038Z,74.75
2023-02-01T05:20:08.336Z,74.93
2023-02-01T05:22:34.802Z,75.19
2023-02-01T05:25:01.250Z,75.23
2023-02-01T05:27:29.682Z,74.98
2023-02-01T05:29:56.120Z,74.28
2023-02-01T05:32:23.370Z,74.41
2023-02-01T05:34:50.269Z,74.55
2023-02-01T05:37:16.799Z,74.82
2023-02-01T05:39:43.240Z,74.39
2023-02-01T05:42:09.698Z,74.08
2023-02-01T05:44:36.163Z,73.90
2023-02-01T05:47:02.620Z,73.66
2023-02-01T05:49:29.058Z,74.03
2023-02-01T05:51:55.523Z,74.02
2023-02-01T05:54:22.018Z,73.54
2023-02-01T05:56:48.603Z,73.13
2023-02-01T05:59:15.026Z,73.10
2023-02-01T06:01:41.544Z,73.43
2023-02-01T06:04:08.272Z,72.79
2023-02-01T06:06:35.140Z,73.31
2023-02-01T06:09:01.863Z,73.83
2023-02-01T06:11:33.118Z,73.88
2023-02-01T06:14:00.161Z,73.41
2023-02-01T06:16:27.110Z,73.44
2023-02-01T06:18:53.826Z,73.50
2023-02-01T06:21:24.726Z,73.40
2023-02-01T06:23:55.152Z,73.45
2023-02-01T06:26:21.748Z,72.83
2023-02-01T06:28:48.487Z,72.76
2023-02-01T06:31:15.125Z,72.55
2023-02-01T06:33:42.527Z,72.34
2023-02-01T06:36:10.643Z,72.84
2023-02-01T06:38:37.154Z,72.36
2023-02-01T06:41:04.436Z,72.65
2023-02-01T06:43:31.608Z,72.92
2023-02-01T06:46:02.269Z,72.47
2023-02-01T06:48:28.716Z,72.66
2023-02-01T06:50:55.561Z,73.02
2023-02-01T06:53:22.374Z,72.83
2023-02-01T06:55:59.138Z,72.73
2023-02-01T06:58:28.529Z,72.56
2023-02-01T07:00:55.132Z,72.12
2023-02-01T07:03:21.711Z,72.65
2023-02-01T07:05:48.699Z,72.49
2023-02-01T07:08:15.298Z,72.86
2023-02-01T07:10:41.826Z,73.11
2023-02-01T07:13:08.391Z,73.62
2023-02-01T07:15:35.054Z,73.32
2023-02-01T07:18:01.953Z,73.40
2023-02-01T07:20:28.461Z,73.32
2023-02-01T07:22:58.291Z,73.68
2023-02-01T07:25:24.860Z,74.34
2023-02-01T07:27:51.400Z,74.22
2023-02-01T07:30:18.045Z,74.19
2023-02-01T07:32:44.541Z,74.36
2023-02-01T07:35:11.085Z,74.38
2023-02-01T07:37:37.575Z,74.54
2023-02-01T07:40:04.328Z,74.34
2023-02-01T07:42:31.197Z,73.42
2023-02-01T07:44:59.749Z,72.95
2023-02-01T07:47:29.700Z,72.70
2023-02-01T07:49:56.253Z,72.71
2023-02-01T07:52:22.691Z,73.33
2023-02-01T07:54:49.123Z,73.02
2023-02-01T07:57:15.566Z,72.66
2023-02-01T08:00:02.293Z,73.30
2023-02-01T08:02:39.050Z,73.08
2023-02-01T08:05:06.613Z,73.83
2023-02-01T08:07:33.050Z,73.57
2023-02-01T08:10:00.901Z,74.53
2023-02-01T08:12:27.989Z,73.97
2023-02-01T08:14:54.790Z,73.22
2023-02-01T08:17:21.354Z,73.94
2023-02-01T08:19:47.817Z,73.78
2023-02-01T08:22:14.238Z,74.11
2023-02-01T08:24:42.083Z,74.12
2023-02-01T08:27:08.541Z,74.04
2023-02-01T08:29:35.494Z,74.27
2023-02-01T08:32:02.010Z,74.46
2023-02-01T08:34:28.852Z,74.24
2023-02-01T08:36:58.832Z,73.98
2023-02-01T08:39:26.365Z,73.94
2023-02-01T08:42:11.442Z,73.86
2023-02-01T08:44:37.928Z,73.62
2023-02-01T08:47:04.458Z,73.65
2023-02-01T08:49:30.975Z,73.28
2023-02-01T08:52:00.958Z,73.46
2023-02-01T08:54:30.348Z,72.87
2023-02-01T08:56:57.401Z,72.76
2023-02-01T08:59:25.154Z,72.69
2023-02-01T09:01:53.125Z,72.73
2023-02-01T09:04:19.786Z,72.49
2023-02-01T09:06:46.337Z,72.28
2023-02-01T09:09:13.262Z,71.78
2023-02-01T09:11:39.867Z,72.18
2023-02-01T09:14:07.115Z,71.97
2023-02-01T09:16:33.578Z,71.78
2023-02-01T09:19:23.929Z,71.37
2023-02-01T09:21:46.480Z,71.21
2023-02-01T09:24:13.714Z,71.41
2023-02-01T09:26:40.498Z,70.99
2023-02-01T09:29:13.192Z,71.42
2023-02-01T09:31:44.096Z,71.79
2023-02-01T09:34:16.425Z,71.81
2023-02-01T09:36:42.864Z,71.16
2023-02-01T09:39:09.316Z,70.73
2023-02-01T09:41:55.027Z,70.65
2023-02-01T09:44:44.280Z,70.00
2023-02-01T09:47:19.452Z,70.37
2023-02-01T09:50:06.169Z,70.16
2023-02-01T09:52:39.444Z,70.35
2023-02-01T09:55:12.307Z,69.88
2023-02-01T09:57:42.754Z,70.03
2023-02-01T10:00:16.421Z,69.67
2023-02-01T10:02:43.665Z,70.08
2023-02-01T10:05:14.572Z,70.40
2023-02-01T10:08:05.899Z,70.03
2023-02-01T10:10:45.039Z,69.73
2023-02-01T10:13:11.455Z,69.52
2023-02-01T10:15:38.102Z,69.35
2023-02-01T10:18:23.177Z,69.50
2023-02-01T10:20:49.639Z,69.29
2023-02-01T10:23:34.362Z,69.01
2023-02-01T10:26:06.031Z,68.63
2023-02-01T10:28:35.283Z,69.11
2023-02-01T10:31:02.835Z,68.90
2023-02-01T10:33:42.671Z,68.76
2023-02-01T10:36:09.133Z,69.24
2023-02-01T10:38:35.645Z,69.12
2023-02-01T10:41:03.915Z,68.44
2023-02-01T10:43:31.026Z,68.74
2023-02-01T10:45:57.719Z,68.41
2023-02-01T10:48:24.375Z,68.84
2023-02-01T10:50:54.562Z,68.85
2023-02-01T10:53:25.277Z,68.69
2023-02-01T10:55:55.374Z,68.74
2023-02-01T10:58:29.998Z,68.20
2023-02-01T11:01:07.813Z,67.27
2023-02-01T11:03:45.083Z,68.34
2023-02-01T11:06:14.620Z,68.64
2023-02-01T11:08:49.013Z,67.96
2023-02-01T11:11:15.712Z,68.37
2023-02-01T11:13:42.838Z,68.46
2023-02-01T11:16:13.057Z,68.45
2023-02-01T11:18:39.534Z,68.16
2023-02-01T11:21:07.217Z,67.99
2023-02-01T11:23:34.630Z,68.04
2023-02-01T11:26:02.749Z,68.08
2023-02-01T11:28:33.426Z,68.04
2023-02-01T11:31:01.746Z,67.69
2023-02-01T11:33:31.399Z,67.48
2023-02-01T11:35:59.382Z,67.94
2023-02-01T11:38:33.667Z,68.00
2023-02-01T11:41:21.927Z,67.69
2023-02-01T11:43:52.708Z,67.33
2023-02-01T11:46:26.101Z,67.32
2023-02-01T11:48:53.728Z,67.32
2023-02-01T11:51:25.950Z,67.59
2023-02-01T11:53:55.476Z,67.46
2023-02-01T11:56:24.921Z,67.50
2023-02-01T11:58:51.476Z,67.12
2023-02-01T12:01:23.978Z,67.21
2023-02-01T12:03:57.582Z,66.73
2023-02-01T12:06:43.093Z,66.61
2023-02-01T12:09:17.270Z,66.93
2023-02-01T12:11:43.720Z,67.10
2023-02-01T12:14:10.202Z,66.85
2023-02-01T12:16:51.743Z,66.59
2023-02-01T12:19:33.611Z,66.62
2023-02-01T12:22:00.031Z,66.34
2023-02-01T12:24:38.796Z,66.82
2023-02-01T12:27:08.265Z,66.35
2023-02-01T12:29:49.388Z,66.89
2023-02-01T12:32:37.179Z,66.63
2023-02-01T12:35:16.035Z,66.68
2023-02-01T12:38:01.408Z,66.80
2023-02-01T12:40:37.156Z,66.50
2023-02-01T12:43:06.758Z,66.35
2023-02-01T12:45:35.806Z,66.98
2023-02-01T12:48:19.572Z,67.11
2023-02-01T12:50:50.116Z,66.74
2023-02-01T12:53:25.472Z,66.49
2023-02-01T12:55:54.569Z,66.20
2023-02-01T12:58:36.276Z,65.94
2023-02-01T13:01:21.590Z,66.34
2023-02-01T13:04:08.640Z,66.10
2023-02-01T13:06:44.293Z,65.77
2023-02-01T13:09:21.704Z,65.49
2023-02-01T13:11:48.946Z,66.27
2023-02-01T13:14:26.530Z,65.98
2023-02-01T13:16:57.533Z,65.79
2023-02-01T13:19:28.536Z,66.37
2023-02-01T13:21:57.702Z,65.65
2023-02-01T13:24:24.112Z,65.57
2023-02-01T13:26:53.924Z,65.93
2023-02-01T13:29:21.953Z,65.57
2023-02-01T13:32:07.386Z,65.92
2023-02-01T13:34:33.810Z,65.54
2023-02-01T13:37:06.176Z,65.66
2023-02-01T13:39:44.170Z,65.61
2023-02-01T13:42:22.455Z,65.65
2023-02-01T13:44:51.465Z,65.68
2023-02-01T13:47:32.552Z,65.31
2023-02-01T13:50:01.623Z,66.21
2023-02-01T13:52:35.487Z,65.91
2023-02-01T13:55:04.495Z,65.78
2023-02-01T13:57:42.125Z,65.49
2023-02-01T14:00:23.654Z,65.85
2023-02-01T14:03:07.522Z,65.99
2023-02-01T14:05:35.417Z,66.47
2023-02-01T14:08:08.144Z,66.32
2023-02-01T14:10:58.261Z,65.86
2023-02-01T14:13:34.007Z,66.30
2023-02-01T14:16:03.835Z,65.85
2023-02-01T14:18:36.906Z,65.94
2023-02-01T14:21:22.130Z,65.66
2023-02-01T14:23:58.059Z,65.97
2023-02-01T14:26:43.047Z,65.92
2023-02-01T14:29:28.249Z,65.82
2023-02-01T14:32:00.667Z,65.78
2023-02-01T14:34:36.539Z,66.36
2023-02-01T14:37:04.808Z,66.15
2023-02-01T14:40:02.111Z,65.80
2023-02-01T14:42:34.642Z,66.01
2023-02-01T14:45:27.733Z,65.66
2023-02-01T14:47:55.548Z,66.09
2023-02-01T14:50:33.323Z,66.15
2023-02-01T14:53:15.741Z,65.72
2023-02-01T14:55:50.207Z,65.59
2023-02-01T14:58:25.401Z,65.90
2023-02-01T15:00:54.033Z,65.96
2023-02-01T15:03:31.424Z,66.43
2023-02-01T15:05:59.380Z,66.43
2023-02-01T15:08:31.212Z,66.22
2023-02-01T15:10:59.852Z,66.14
2023-02-01T15:13:27.186Z,66.45
2023-02-01T15:16:04.385Z,66.04
2023-02-01T15:18:31.327Z,66.07
2023-02-01T15:21:06.968Z,66.00
2023-02-01T15:23:49.399Z,66.03
2023-02-01T15:26:25.869Z,65.60
2023-02-01T15:28:52.464Z,65.77
2023-02-01T15:31:32.346Z,65.30
2023-02-01T15:33:59.008Z,65.77
2023-02-01T15:36:28.542Z,66.20
2023-02-01T15:39:18.979Z,65.97
2023-02-01T15:41:47.857Z,65.10
2023-02-01T15:44:23.307Z,65.38
2023-02-01T15:46:50.753Z,65.34
2023-02-01T15:49:20.983Z,64.94
2023-02-01T15:51:48.035Z,65.05
2023-02-01T15:54:22.072Z,64.95
2023-02-01T15:56:54.119Z,65.61
2023-02-01T15:59:23.147Z,65.73
2023-02-01T16:01:49.824Z,65.25
2023-02-01T16:04:27.296Z,65.44
2023-02-01T16:06:58.354Z,65.28
2023-02-01T16:09:28.202Z,65.67
2023-02-01T16:11:58.085Z,65.79
2023-02-01T16:14:24.989Z,65.86
2023-02-01T16:16:52.719Z,65.80
2023-02-01T16:19:19.350Z,65.74
2023-02-01T16:21:46.497Z,65.86
2023-02-01T16:24:13.030Z,65.47
2023-02-01T16:26:40.232Z,65.66
2023-02-01T16:29:09.754Z,65.63
2023-02-01T16:31:38.894Z,66.01
2023-02-01T16:34:06.822Z,65.34
2023-02-01T16:36:33.846Z,66.32
2023-02-01T16:39:00.633Z,65.91
2023-02-01T16:41:28.877Z,65.99
2023-02-01T16:43:56.308Z,66.10
2023-02-01T16:46:25.902Z,66.80
2023-02-01T16:48:53.932Z,66.92
2023-02-01T16:51:20.540Z,66.28
2023-02-01T16:53:54.217Z,65.92
2023-02-01T16:56:26.414Z,66.43
2023-02-01T16:58:54.214Z,66.50
2023-02-01T17:01:21.579Z,66.75
2023-02-01T17:03:48.189Z,66.76
2023-02-01T17:06:17.386Z,66.17
2023-02-01T17:08:45.319Z,66.55
2023-02-01T17:11:13.904Z,66.52
2023-02-01T17:13:42.095Z,66.92
2023-02-01T17:16:17.944Z,66.44
2023-02-01T17:18:45.162Z,66.33
2023-02-01T17:21:11.620Z,66.71
2023-02-01T17:23:38.494Z,66.82
2023-02-01T17:26:05.230Z,66.62
2023-02-01T17:28:31.648Z,66.46
2023-02-01T17:30:58.213Z,66.06
2023-02-01T17:33:27.177Z,66.17
2023-02-01T17:35:54.933Z,66.59
2023-02-01T17:38:21.852Z,66.09
2023-02-01T17:40:48.376Z,65.95
2023-02-01T17:43:15.858Z,65.88
2023-02-01T17:45:51.510Z,66.24
2023-02-01T17:48:21.660Z,66.11
2023-02-01T17:50:50.199Z,66.13
2023-02-01T17:53:16.930Z,66.05
2023-02-01T17:55:44.809Z,66.32
2023-02-01T17:58:15.396Z,66.18
2023-02-01T18:00:42.637Z,65.81
2023-02-01T18:03:30.102Z,66.25
2023-02-01T18:05:57.630Z,65.52
2023-02-01T18:08:25.489Z,65.87
2023-02-01T18:10:54.273Z,65.63
2023-02-01T18:13:21.342Z,65.63
2023-02-01T18:15:48.218Z,65.64
2023-02-01T18:18:14.651Z,65.51
2023-02-01T18:20:43.508Z,66.39
2023-02-01T18:23:14.203Z,66.42
2023-02-01T18:25:40.805Z,66.57
2023-02-01T18:28:07.267Z,66.25
2023-02-01T18:30:34.262Z,65.92
2023-02-01T18:33:00.880Z,66.01
2023-02-01T18:35:28.437Z,66.08
2023-02-01T18:37:56.496Z,65.53
2023-02-01T18:40:24.415Z,65.77
2023-02-01T18:42:50.956Z,65.99
2023-02-01T18:45:27.027Z,66.06
2023-02-01T18:47:53.805Z,66.64
2023-02-01T18:50:20.582Z,66.84
2023-02-01T18:52:47.277Z,67.44
2023-02-01T18:55:13.981Z,68.04
2023-02-01T18:57:40.842Z,68.78
2023-02-01T19:00:10.228Z,69.00
2023-02-01T19:02:36.902Z,68.83
2023-02-01T19:05:03.499Z,69.01
2023-02-01T19:07:30.043Z,70.03
2023-02-01T19:09:56.505Z,70.59
2023-02-01T19:12:22.989Z,70.25
2023-02-01T19:14:49.392Z,69.95
2023-02-01T19:17:15.822Z,70.47
2023-02-01T19:19:44.052Z,70.62
2023-02-01T19:22:10.772Z,70.46
2023-02-01T19:24:38.831Z,70.27
2023-02-01T19:27:05.439Z,70.22
2023-02-01T19:29:31.933Z,69.89
2023-02-01T19:31:58.575Z,69.95
2023-02-01T19:34:25.024Z,69.55
2023-02-01T19:36:52.553Z,69.45
2023-02-01T19:39:20.434Z,69.56
2023-02-01T19:41:46.817Z,68.98
2023-02-01T19:44:14.546Z,68.84
2023-02-01T19:46:41.002Z,69.10
2023-02-01T19:49:11.921Z,69.30
2023-02-01T19:51:40.839Z,68.97
2023-02-01T19:54:08.845Z,69.09
2023-02-01T19:56:35.705Z,69.35
2023-02-01T19:59:02.626Z,68.60
2023-02-01T20:01:28.286Z,68.97
2023-02-01T20:04:01.505Z,69.17
2023-02-01T20:06:29.434Z,68.86
2023-02-01T20:08:56.646Z,69.18
2023-02-01T20:11:25.256Z,69.46
2023-02-01T20:13:52.593Z,68.88
2023-02-01T20:16:19.684Z,68.90
2023-02-01T20:18:46.319Z,68.58
2023-02-01T20:21:13.036Z,69.36
2023-02-01T20:23:39.504Z,68.95
2023-02-01T20:26:07.941Z,68.95
2023-02-01T20:28:34.645Z,68.99
2023-02-01T20:31:01.568Z,69.31
2023-02-01T20:33:28.934Z,69.50
2023-02-01T20:35:55.460Z,70.22
2023-02-01T20:38:22.536Z,70.70
2023-02-01T20:40:49.049Z,70.45
2023-02-01T20:43:15.501Z,70.78
2023-02-01T20:45:42.419Z,70.25
2023-02-01T20:48:09.583Z,70.05
2023-02-01T20:50:36.142Z,70.49
2023-02-01T20:53:02.715Z,70.32
2023-02-01T20:55:29.170Z,70.52
2023-02-01T20:57:55.625Z,70.13
2023-02-01T21:00:24.938Z,69.90
2023-02-01T21:02:51.362Z,69.61
2023-02-01T21:05:17.852Z,69.29
2023-02-01T21:07:44.313Z,69.45
2023-02-01T21:10:11.489Z,69.06
2023-02-01T21:12:37.893Z,69.00
2023-02-01T21:15:05.552Z,68.46
2023-02-01T21:17:32.392Z,68.76
2023-02-01T21:19:59.515Z,68.53
2023-02-01T21:22:25.897Z,68.20
2023-02-01T21:24:52.273Z,68.09
2023-02-01T21:27:18.695Z,67.67
2023-02-01T21:29:45.186Z,68.00
2023-02-01T21:32:11.748Z,68.61
2023-02-01T21:34:38.156Z,68.77
2023-02-01T21:37:04.559Z,68.38
2023-02-01T21:39:31.091Z,68.46
2023-02-01T21:42:18.050Z,68.45
2023-02-01T21:44:48.509Z,67.82
2023-02-01T21:47:18.933Z,67.89
2023-02-01T21:49:48.493Z,67.68
2023-02-01T21:52:15.990Z,67.72
2023-02-01T21:54:42.597Z,67.86
2023-02-01T21:57:12.406Z,67.66
2023-02-01T21:59:40.305Z,67.25
2023-02-01T22:02:07.650Z,67.14
2023-02-01T22:04:34.094Z,67.87
2023-02-01T22:07:00.634Z,67.64
2023-02-01T22:09:27.112Z,67.40
2023-02-01T22:11:55.079Z,67.86
2023-02-01T22:14:22.066Z,67.57
2023-02-01T22:16:48.536Z,67.69
2023-02-01T22:19:15.610Z,68.04
2023-02-01T22:21:43.223Z,68.03
2023-02-01T22:24:10.881Z,67.99
2023-02-01T22:26:37.363Z,68.12
2023-02-01T22:29:03.803Z,67.54
2023-02-01T22:31:30.466Z,67.54
2023-02-01T22:33:56.941Z,67.89
2023-02-01T22:36:25.116Z,67.46
2023-02-01T22:38:52.473Z,67.32
2023-02-01T22:41:19.580Z,67.14
2023-02-01T22:43:46.672Z,66.85
2023-02-01T22:46:21.504Z,67.10
2023-02-01T22:48:48.438Z,66.83
2023-02-01T22:51:19.474Z,67.16
2023-02-01T22:53:45.963Z,67.15
2023-02-01T22:56:13.484Z,67.04
2023-02-01T22:58:40.269Z,66.89
2023-02-01T23:01:10.331Z,66.44
2023-02-01T23:03:37.268Z,66.79
2023-02-01T23:06:04.251Z,67.09
2023-02-01T23:08:30.859Z,66.85
2023-02-01T23:11:01.157Z,66.46
2023-02-01T23:13:27.636Z,66.02
2023-02-01T23:15:54.074Z,66.70
2023-02-01T23:18:20.547Z,66.85
2023-02-01T23:20:46.995Z,68.06
2023-02-01T23:23:13.429Z,67.87
2023-02-01T23:25:39.860Z,67.69
2023-02-01T23:28:07.931Z,67.75
2023-02-01T23:30:34.385Z,67.80
2023-02-01T23:33:00.889Z,68.54
2023-02-01T23:35:27.305Z,68.09
2023-02-01T23:37:53.705Z,67.88
2023-02-01T23:40:20.139Z,68.43
2023-02-01T23:43:06.491Z,68.61
2023-02-01T23:45:32.907Z,69.18
2023-02-01T23:47:59.267Z,69.04
2023-02-01T23:50:25.688Z,69.69
2023-02-01T23:52:52.068Z,69.46
2023-02-01T23:55:18.476Z,69.57
2023-02-01T23:57:44.914Z,70.05
